Time;durP1;ratioP1;P1;durP2;ratioP2;P2;SDS_P1;SDS_P2;PMS_P1;PMS_P2;Temp;Humidity;BMP_temperature;BMP_pressure;BME280_temperature;BME280_humidity;BME280_pressure;Samples;Min_cycle;Max_cycle;Signal;HPM_P1;HPM_P2
2023/04/27 00:02:25;;;;;;;5.40;2.95;;;6.40;99.90;;;;;;5041625;28;21110;-82
2023/04/27 00:04:50;;;;;;;5.70;3.40;;;6.30;99.90;;;;;;5029605;28;20189;-85
2023/04/27 00:07:16;;;;;;;7.03;3.23;;;6.30;99.90;;;;;;5024864;28;20552;-83
2023/04/27 00:09:41;;;;;;;7.47;3.60;;;6.30;99.90;;;;;;5043312;28;20189;-85
2023/04/27 00:12:07;;;;;;;5.27;2.60;;;;;;;;;;5027766;28;20260;-84
2023/04/27 00:14:33;;;;;;;4.60;3.20;;;6.30;99.90;;;;;;5031690;28;20192;-84
2023/04/27 00:16:58;;;;;;;6.10;3.10;;;6.20;99.90;;;;;;5025795;28;21043;-84
2023/04/27 00:19:24;;;;;;;6.07;3.13;;;6.20;99.90;;;;;;5023201;28;20181;-85
2023/04/27 00:21:50;;;;;;;5.20;3.03;;;6.00;99.90;;;;;;5022966;28;20170;-84
2023/04/27 00:24:15;;;;;;;4.73;3.00;;;6.00;99.90;;;;;;5030140;28;20193;-82
2023/04/27 00:26:41;;;;;;;6.70;3.80;;;5.90;99.90;;;;;;5037017;28;20545;-83
2023/04/27 00:29:06;;;;;;;6.70;3.23;;;5.80;99.90;;;;;;5028306;28;20677;-85
2023/04/27 00:31:32;;;;;;;3.43;2.83;;;5.60;99.90;;;;;;5044472;28;20181;-82
2023/04/27 00:33:57;;;;;;;4.53;3.10;;;5.50;99.90;;;;;;5028317;28;20188;-85
2023/04/27 00:36:23;;;;;;;13.70;3.90;;;5.50;99.90;;;;;;5024979;28;20201;-83
2023/04/27 00:38:49;;;;;;;6.20;3.70;;;;;;;;;;5048166;28;20658;-85
2023/04/27 00:41:15;;;;;;;8.35;4.45;;;5.50;99.90;;;;;;5032655;28;20185;-85
2023/04/27 00:43:44;;;;;;;7.70;4.47;;;5.40;99.90;;;;;;5038266;28;21074;-85
2023/04/27 00:46:18;;;;;;;7.30;3.60;;;5.40;99.90;;;;;;5041755;28;20227;-85
2023/04/27 00:48:44;;;;;;;6.05;3.90;;;5.50;99.90;;;;;;5039072;28;20189;-84
2023/04/27 00:51:10;;;;;;;9.70;3.33;;;5.50;99.90;;;;;;5028253;28;20205;-85
2023/04/27 00:53:37;;;;;;;6.17;3.70;;;5.70;99.90;;;;;;5027500;28;21707;-84
2023/04/27 00:56:05;;;;;;;7.40;3.90;;;5.70;99.90;;;;;;5021680;28;20195;-85
2023/04/27 00:58:38;;;;;;;8.73;4.20;;;5.80;99.90;;;;;;5027351;28;20190;-83
2023/04/27 01:01:04;;;;;;;7.72;3.30;;;5.90;99.90;;;;;;5026100;28;20623;-85
2023/04/27 01:03:30;;;;;;;5.18;3.45;;;7.40;99.90;;;;;;5040145;28;20204;-86
2023/04/27 01:06:00;;;;;;;5.00;3.30;;;;;;;;;;5041498;28;20201;-87
2023/04/27 01:08:26;;;;;;;8.55;3.75;;;6.00;99.90;;;;;;5039439;28;20281;-86
2023/04/27 01:10:52;;;;;;;5.05;3.78;;;6.30;99.90;;;;;;5024393;28;20669;-84
2023/04/27 01:13:18;;;;;;;9.83;4.17;;;;;;;;;;5021644;28;20185;-83
2023/04/27 01:15:43;;;;;;;6.63;3.97;;;5.90;99.90;;;;;;5022030;28;20556;-84
2023/04/27 01:18:09;;;;;;;7.23;4.00;;;6.00;99.90;;;;;;5039701;28;20174;-84
2023/04/27 01:20:35;;;;;;;6.97;3.00;;;6.00;99.90;;;;;;5028376;28;20177;-84
2023/04/27 01:23:00;;;;;;;7.73;3.33;;;6.00;99.90;;;;;;5030808;28;20593;-86
2023/04/27 01:25:26;;;;;;;4.30;3.87;;;;;;;;;;5035496;28;20308;-85
2023/04/27 01:27:53;;;;;;;5.43;3.20;;;6.00;99.90;;;;;;5035032;28;20316;-85
2023/04/27 01:30:18;;;;;;;6.80;3.85;;;5.90;99.90;;;;;;5030496;28;20433;-84
2023/04/27 01:32:45;;;;;;;6.63;3.30;;;;;;;;;;5048151;28;20177;-83
2023/04/27 01:35:10;;;;;;;6.07;3.45;;;5.60;99.90;;;;;;5038704;28;20572;-84
2023/04/27 01:37:36;;;;;;;11.13;3.40;;;5.60;99.90;;;;;;5031558;28;20209;-85
2023/04/27 01:40:04;;;;;;;6.47;4.83;;;5.40;99.90;;;;;;5037628;28;20284;-86
2023/04/27 01:42:30;;;;;;;4.80;3.78;;;5.50;99.90;;;;;;5025351;28;20200;-83
2023/04/27 01:44:55;;;;;;;9.60;3.77;;;5.30;99.90;;;;;;5041064;28;20196;-83
2023/04/27 01:47:21;;;;;;;7.70;3.77;;;5.30;99.90;;;;;;5035862;28;20193;-83
2023/04/27 01:49:46;;;;;;;6.97;4.30;;;5.10;99.90;;;;;;5029196;28;20192;-84
2023/04/27 01:52:12;;;;;;;4.50;3.60;;;5.00;99.90;;;;;;5040728;28;20193;-84
2023/04/27 01:54:38;;;;;;;6.00;4.20;;;;;;;;;;5026489;28;20189;-84
2023/04/27 01:57:03;;;;;;;6.07;3.70;;;5.00;99.90;;;;;;5020138;28;20721;-84
2023/04/27 01:59:31;;;;;;;7.47;3.30;;;4.80;99.90;;;;;;5038192;28;20768;-83
2023/04/27 02:01:56;;;;;;;8.55;3.63;;;4.80;99.90;;;;;;5019485;28;20585;-83
2023/04/27 02:04:22;;;;;;;4.40;4.00;;;;;;;;;;5034602;28;20177;-84
2023/04/27 02:06:48;;;;;;;5.57;3.63;;;;;;;;;;5034962;28;20201;-83
2023/04/27 02:09:14;;;;;;;4.83;3.93;;;4.70;99.90;;;;;;5032820;28;20910;-83
2023/04/27 02:11:39;;;;;;;6.60;3.03;;;4.70;99.90;;;;;;5028996;28;20732;-84
2023/04/27 02:14:05;;;;;;;5.03;2.57;;;4.70;99.90;;;;;;5030975;28;20678;-84
2023/04/27 02:16:31;;;;;;;12.03;3.77;;;4.50;99.90;;;;;;5040482;28;20200;-84
2023/04/27 02:18:57;;;;;;;4.63;3.47;;;4.50;99.90;;;;;;5037621;28;20188;-83
2023/04/27 02:21:23;;;;;;;5.93;3.95;;;4.40;99.90;;;;;;5044627;28;20176;-83
2023/04/27 02:23:49;;;;;;;5.73;3.30;;;4.50;99.90;;;;;;5031145;28;20197;-83
2023/04/27 02:26:19;;;;;;;4.57;3.10;;;4.80;99.90;;;;;;5025306;28;20220;-83
2023/04/27 02:28:46;;;;;;;4.65;3.28;;;4.80;99.90;;;;;;5027832;28;20189;-85
2023/04/27 02:31:13;;;;;;;4.95;3.40;;;4.90;99.90;;;;;;5024547;28;21720;-85
2023/04/27 02:33:41;;;;;;;5.28;3.15;;;5.10;99.90;;;;;;5041053;28;20240;-85
2023/04/27 02:36:08;;;;;;;4.53;3.30;;;5.10;99.90;;;;;;5033480;28;20218;-85
2023/04/27 02:38:34;;;;;;;7.93;3.85;;;5.20;99.90;;;;;;5028431;28;20210;-85
2023/04/27 02:40:59;;;;;;;4.78;2.90;;;5.30;99.90;;;;;;5045361;28;20789;-85
2023/04/27 02:43:25;;;;;;;11.80;3.47;;;5.30;99.90;;;;;;5033139;28;20227;-86
2023/04/27 02:45:52;;;;;;;10.40;3.77;;;5.40;99.90;;;;;;5027550;28;20972;-86
2023/04/27 02:48:17;;;;;;;7.40;3.42;;;5.50;99.90;;;;;;5041206;28;20193;-86
2023/04/27 02:50:44;;;;;;;5.77;3.00;;;5.50;99.90;;;;;;5041727;28;20190;-86
2023/04/27 02:53:10;;;;;;;15.73;3.63;;;5.60;99.90;;;;;;5029749;28;20275;-86
2023/04/27 02:55:37;;;;;;;4.35;2.72;;;5.70;99.90;;;;;;5045311;28;20201;-86
2023/04/27 02:58:03;;;;;;;6.97;3.28;;;5.70;99.90;;;;;;5032728;28;20177;-87
2023/04/27 03:00:32;;;;;;;4.95;2.75;;;5.70;99.90;;;;;;5045121;28;20181;-86
2023/04/27 03:02:58;;;;;;;4.97;3.30;;;5.60;99.90;;;;;;5042391;28;20192;-86
2023/04/27 03:05:27;;;;;;;5.80;3.33;;;5.80;99.90;;;;;;5024240;28;20292;-86
2023/04/27 03:07:53;;;;;;;9.43;3.60;;;5.80;99.90;;;;;;5030935;28;20626;-85
2023/04/27 03:10:18;;;;;;;7.10;3.10;;;5.80;99.90;;;;;;5025528;28;20193;-84
2023/04/27 03:12:44;;;;;;;8.50;4.20;;;5.90;99.90;;;;;;5026129;28;20201;-86
2023/04/27 03:15:10;;;;;;;4.10;3.23;;;6.00;99.90;;;;;;5041017;28;20202;-87
2023/04/27 03:17:36;;;;;;;5.37;3.53;;;;;;;;;;5033772;28;20278;-85
2023/04/27 03:20:03;;;;;;;7.77;4.10;;;6.00;99.90;;;;;;5022720;28;20185;-85
2023/04/27 03:22:29;;;;;;;7.50;4.50;;;6.10;99.90;;;;;;5045058;28;20473;-85
2023/04/27 03:24:55;;;;;;;7.47;4.70;;;6.30;99.90;;;;;;5030853;28;20173;-86
2023/04/27 03:27:20;;;;;;;7.37;4.73;;;6.30;99.90;;;;;;5030949;28;20212;-86
2023/04/27 03:29:46;;;;;;;8.07;4.67;;;6.40;99.90;;;;;;5029077;28;20186;-85
2023/04/27 03:32:11;;;;;;;8.30;4.40;;;6.30;99.90;;;;;;5048792;28;20197;-85
2023/04/27 03:34:37;;;;;;;8.20;5.30;;;8.30;99.90;;;;;;5029155;28;20219;-84
2023/04/27 03:37:02;;;;;;;10.93;5.07;;;6.40;99.90;;;;;;5029214;28;20204;-85
2023/04/27 03:39:28;;;;;;;8.33;4.70;;;6.40;99.90;;;;;;5045992;28;20182;-87
2023/04/27 03:41:53;;;;;;;8.80;5.07;;;6.50;99.90;;;;;;5030649;28;20181;-87
2023/04/27 03:44:19;;;;;;;7.30;4.03;;;6.50;99.90;;;;;;5050695;28;20182;-87
2023/04/27 03:46:44;;;;;;;5.77;4.73;;;6.50;99.90;;;;;;5035748;28;20208;-85
2023/04/27 03:49:10;;;;;;;6.17;4.70;;;6.50;99.90;;;;;;5051188;28;20288;-85
2023/04/27 03:51:38;;;;;;;7.70;4.95;;;6.60;99.90;;;;;;5037670;28;20185;-87
2023/04/27 03:54:04;;;;;;;10.32;5.20;;;6.60;99.90;;;;;;5046530;28;20223;-86
2023/04/27 03:56:29;;;;;;;13.20;4.77;;;6.50;99.90;;;;;;5047703;28;20288;-86
2023/04/27 03:58:55;;;;;;;11.10;6.10;;;6.50;99.90;;;;;;5030378;28;20185;-87
2023/04/27 04:01:21;;;;;;;8.03;5.03;;;6.30;99.90;;;;;;5050327;28;20181;-86
2023/04/27 04:03:46;;;;;;;10.73;6.57;;;6.30;99.90;;;;;;5032438;28;20658;-85
2023/04/27 04:06:12;;;;;;;8.40;4.90;;;6.10;99.90;;;;;;5034309;28;20645;-88
2023/04/27 04:08:40;;;;;;;8.23;5.70;;;7.00;99.90;;;;;;5038923;28;20447;-86
2023/04/27 04:11:06;;;;;;;12.40;7.30;;;6.10;99.90;;;;;;5033847;28;20182;-85
2023/04/27 04:13:31;;;;;;;8.00;5.17;;;6.10;99.90;;;;;;5048206;28;20186;-85
2023/04/27 04:16:05;;;;;;;9.50;5.13;;;6.10;99.90;;;;;;5040346;28;20201;-86
2023/04/27 04:18:31;;;;;;;7.88;5.60;;;6.30;99.90;;;;;;5048551;28;20189;-85
2023/04/27 04:20:56;;;;;;;7.23;5.27;;;6.30;99.90;;;;;;5050823;28;20193;-85
2023/04/27 04:23:22;;;;;;;11.63;5.70;;;6.30;99.90;;;;;;5036542;28;20520;-84
2023/04/27 04:25:48;;;;;;;7.18;5.30;;;6.30;99.90;;;;;;5029696;28;20209;-85
2023/04/27 04:28:15;;;;;;;6.90;5.57;;;6.20;99.90;;;;;;5042742;28;20265;-84
2023/04/27 04:30:42;;;;;;;9.30;5.65;;;;;;;;;;5024548;28;20494;-86
2023/04/27 04:33:08;;;;;;;8.50;5.72;;;6.20;99.90;;;;;;5044503;28;20169;-86
2023/04/27 04:35:37;;;;;;;11.02;6.40;;;6.40;99.90;;;;;;5035346;28;20213;-85
2023/04/27 04:38:03;;;;;;;16.13;5.38;;;6.30;99.90;;;;;;5046615;28;20580;-85
2023/04/27 04:40:29;;;;;;;14.37;5.97;;;;;;;;;;5032958;28;20429;-86
2023/04/27 04:42:55;;;;;;;9.40;6.40;;;6.70;99.90;;;;;;5032353;28;20431;-85
2023/04/27 04:45:21;;;;;;;7.93;5.03;;;6.60;99.90;;;;;;5027252;28;20460;-85
2023/04/27 04:47:47;;;;;;;13.87;5.20;;;6.60;99.90;;;;;;5030312;28;20181;-85
2023/04/27 04:50:13;;;;;;;8.15;5.80;;;6.70;99.90;;;;;;5042463;28;20677;-83
2023/04/27 04:52:38;;;;;;;8.40;4.87;;;6.90;99.90;;;;;;5025767;28;20181;-83
2023/04/27 04:55:05;;;;;;;8.73;5.20;;;6.80;99.90;;;;;;5032712;28;20185;-83
2023/04/27 04:57:30;;;;;;;7.18;5.28;;;6.80;99.90;;;;;;5048882;28;20233;-83
2023/04/27 04:59:56;;;;;;;18.33;6.67;;;6.80;99.90;;;;;;5031158;28;20194;-84
2023/04/27 05:02:22;;;;;;;13.37;6.20;;;6.80;99.90;;;;;;5049753;28;20436;-84
2023/04/27 05:04:47;;;;;;;10.60;5.77;;;6.70;99.90;;;;;;5046976;28;20460;-84
2023/04/27 05:07:13;;;;;;;9.03;6.03;;;6.70;99.90;;;;;;5024630;28;20209;-84
2023/04/27 05:09:39;;;;;;;9.77;5.97;;;6.50;99.90;;;;;;5034230;28;20184;-83
2023/04/27 05:12:05;;;;;;;12.13;6.63;;;6.30;99.90;;;;;;5048330;28;20549;-83
2023/04/27 05:14:31;;;;;;;8.85;5.88;;;6.40;99.90;;;;;;5037820;28;20187;-84
2023/04/27 05:16:57;;;;;;;9.37;6.00;;;6.50;99.90;;;;;;5027747;28;20208;-83
2023/04/27 05:19:24;;;;;;;9.40;5.90;;;6.70;99.90;;;;;;5030773;28;20200;-84
2023/04/27 05:21:49;;;;;;;14.07;7.43;;;6.80;99.90;;;;;;5041524;28;20173;-83
2023/04/27 05:24:15;;;;;;;8.80;6.17;;;6.70;99.90;;;;;;5041927;28;20171;-83
2023/04/27 05:26:42;;;;;;;6.93;5.30;;;6.70;99.90;;;;;;5046254;28;20212;-83
2023/04/27 05:29:07;;;;;;;11.65;7.00;;;6.70;99.90;;;;;;5048606;28;20185;-83
2023/04/27 05:31:33;;;;;;;7.77;5.47;;;6.70;99.90;;;;;;5035815;28;20185;-83
2023/04/27 05:33:58;;;;;;;12.60;6.20;;;6.70;99.90;;;;;;5039085;28;20178;-83
2023/04/27 05:36:24;;;;;;;11.03;5.40;;;6.80;99.90;;;;;;5042233;28;20201;-83
2023/04/27 05:38:50;;;;;;;9.07;5.80;;;6.90;99.90;;;;;;5030663;28;20177;-84
2023/04/27 05:41:15;;;;;;;10.73;6.85;;;7.00;99.90;;;;;;5039359;28;20224;-84
2023/04/27 05:43:41;;;;;;;10.20;6.40;;;7.20;99.90;;;;;;5038637;28;20173;-84
2023/04/27 05:46:07;;;;;;;10.90;6.90;;;7.30;99.90;;;;;;5031420;28;20197;-83
2023/04/27 05:48:32;;;;;;;11.90;6.60;;;7.40;99.90;;;;;;5044367;28;20181;-83
2023/04/27 05:51:02;;;;;;;10.93;6.10;;;7.60;99.90;;;;;;5049094;28;20165;-84
2023/04/27 05:53:28;;;;;;;9.75;5.97;;;7.80;99.90;;;;;;5036000;28;20265;-83
2023/04/27 05:55:55;;;;;;;7.78;5.90;;;7.90;99.90;;;;;;5029868;28;20209;-83
2023/04/27 05:58:21;;;;;;;8.70;6.07;;;8.00;99.90;;;;;;5034701;28;20162;-83
2023/04/27 06:00:46;;;;;;;7.93;6.60;;;8.10;99.90;;;;;;5039665;28;20323;-84
2023/04/27 06:03:12;;;;;;;12.33;5.90;;;8.30;99.90;;;;;;5050971;28;20437;-84
2023/04/27 06:05:37;;;;;;;15.03;7.67;;;8.60;99.90;;;;;;5039414;28;20201;-84
2023/04/27 06:08:03;;;;;;;8.03;6.37;;;8.50;99.90;;;;;;5036771;28;20192;-83
2023/04/27 06:10:29;;;;;;;12.70;7.20;;;;;;;;;;5037537;28;20181;-84
2023/04/27 06:12:55;;;;;;;12.35;7.18;;;;;;;;;;5032667;28;20604;-83
2023/04/27 06:15:21;;;;;;;10.85;7.10;;;8.70;99.90;;;;;;5037991;28;20221;-84
2023/04/27 06:17:46;;;;;;;11.47;6.90;;;9.10;99.90;;;;;;5045668;28;20201;-83
2023/04/27 06:20:12;;;;;;;16.17;7.23;;;9.10;99.90;;;;;;5047815;28;20192;-83
2023/04/27 06:22:38;;;;;;;11.80;6.60;;;9.30;99.90;;;;;;5039941;28;20177;-83
2023/04/27 06:25:06;;;;;;;9.97;6.10;;;9.70;99.90;;;;;;5051594;28;20174;-83
2023/04/27 06:27:33;;;;;;;9.50;7.57;;;9.70;99.90;;;;;;5039334;28;20466;-83
2023/04/27 06:29:59;;;;;;;9.30;5.93;;;10.00;99.90;;;;;;5049881;28;20248;-84
2023/04/27 06:32:25;;;;;;;10.70;6.23;;;11.60;99.90;;;;;;5041408;28;20185;-83
2023/04/27 06:34:50;;;;;;;8.30;5.53;;;10.30;99.90;;;;;;5049869;28;20178;-83
2023/04/27 06:37:16;;;;;;;10.83;6.17;;;10.30;99.90;;;;;;5050479;28;20220;-83
2023/04/27 06:39:45;;;;;;;8.93;6.03;;;10.40;99.90;;;;;;5036571;28;20166;-83
2023/04/27 06:42:10;;;;;;;14.73;6.50;;;10.30;99.90;;;;;;5030607;28;20177;-83
2023/04/27 06:44:36;;;;;;;15.47;6.93;;;10.50;99.90;;;;;;5031630;28;20189;-83
2023/04/27 06:47:02;;;;;;;10.67;6.30;;;10.50;99.90;;;;;;5032265;28;20281;-83
2023/04/27 06:49:27;;;;;;;13.80;6.93;;;10.80;99.90;;;;;;5048566;28;20829;-84
2023/04/27 06:51:53;;;;;;;7.33;6.53;;;10.80;99.90;;;;;;5045522;28;20185;-84
2023/04/27 06:54:19;;;;;;;18.93;7.00;;;11.40;99.90;;;;;;5046626;28;20211;-84
2023/04/27 06:56:45;;;;;;;11.83;7.43;;;;;;;;;;5048112;28;20246;-83
2023/04/27 06:59:10;;;;;;;12.65;6.10;;;12.00;99.90;;;;;;5048871;28;20178;-84
2023/04/27 07:01:36;;;;;;;13.10;6.00;;;12.30;99.90;;;;;;5030216;28;20625;-84
2023/04/27 07:04:03;;;;;;;10.93;7.33;;;12.50;99.90;;;;;;5035431;28;20177;-83
2023/04/27 07:06:28;;;;;;;9.63;6.07;;;14.40;99.90;;;;;;5048488;28;20490;-84
2023/04/27 07:08:54;;;;;;;9.70;6.60;;;13.30;99.90;;;;;;5029440;28;20189;-84
2023/04/27 07:11:20;;;;;;;8.03;5.60;;;14.20;99.90;;;;;;5048666;28;20200;-84
2023/04/27 07:13:46;;;;;;;9.57;6.37;;;14.20;99.90;;;;;;5047402;28;20325;-83
2023/04/27 07:16:12;;;;;;;13.93;6.90;;;;;;;;;;5037777;28;20444;-82
2023/04/27 07:18:38;;;;;;;9.53;6.80;;;13.80;99.90;;;;;;5039001;28;20420;-84
2023/04/27 07:21:04;;;;;;;7.38;6.00;;;13.70;99.90;;;;;;5019440;28;20416;-83
2023/04/27 07:23:30;;;;;;;12.93;6.90;;;13.50;99.90;;;;;;5044539;28;20177;-83
2023/04/27 07:25:57;;;;;;;13.83;6.67;;;;;;;;;;5033232;28;20205;-84
2023/04/27 07:28:23;;;;;;;11.13;7.03;;;;;;;;;;5041275;28;20416;-83
2023/04/27 07:30:49;;;;;;;17.07;6.83;;;;;;;;;;5042487;28;20412;-83
2023/04/27 07:33:16;;;;;;;11.87;6.50;;;15.10;99.90;;;;;;5041980;28;20410;-88
2023/04/27 07:35:42;;;;;;;10.87;6.87;;;15.00;99.90;;;;;;5043221;28;20455;-83
2023/04/27 07:38:08;;;;;;;8.80;6.27;;;15.20;99.90;;;;;;5059629;28;20416;-83
2023/04/27 07:40:33;;;;;;;12.40;6.93;;;15.90;99.90;;;;;;5047747;28;20204;-83
2023/04/27 07:42:59;;;;;;;15.20;7.10;;;16.30;99.90;;;;;;5036893;28;20189;-84
2023/04/27 07:45:32;;;;;;;8.07;6.20;;;;;;;;;;5038574;28;20205;-84
2023/04/27 07:47:59;;;;;;;13.23;7.13;;;16.80;99.90;;;;;;5060700;28;20400;-83
2023/04/27 07:50:25;;;;;;;14.83;7.47;;;17.10;99.90;;;;;;5048388;28;20463;-84
2023/04/27 07:52:53;;;;;;;10.00;7.10;;;19.00;99.90;;;;;;5020748;28;20443;-85
2023/04/27 07:55:21;;;;;;;11.40;6.20;;;20.30;99.90;;;;;;5020702;28;20523;-84
2023/04/27 07:57:47;;;;;;;11.60;6.43;;;;;;;;;;5036515;28;20464;-84
2023/04/27 08:00:12;;;;;;;11.30;7.73;;;22.20;95.90;;;;;;5032965;28;20423;-84
2023/04/27 08:02:38;;;;;;;12.90;7.03;;;22.90;91.40;;;;;;5035906;28;20422;-84
2023/04/27 08:05:04;;;;;;;12.20;7.33;;;;;;;;;;5057760;28;20177;-84
2023/04/27 08:07:30;;;;;;;13.10;8.03;;;;;;;;;;5044330;28;20270;-85
2023/04/27 08:09:56;;;;;;;9.83;8.00;;;;;;;;;;5043638;28;20409;-85
2023/04/27 08:12:22;;;;;;;17.47;8.03;;;;;;;;;;5043337;28;20899;-85
2023/04/27 08:14:48;;;;;;;15.03;9.67;;;;;;;;;;5060606;28;20404;-85
2023/04/27 08:17:16;;;;;;;10.47;8.80;;;;;;;;;;5059818;28;20457;-85
2023/04/27 08:19:42;;;;;;;11.43;9.10;;;;;;;;;;5041648;28;20933;-86
2023/04/27 08:22:08;;;;;;;11.27;9.13;;;;;;;;;;5059489;28;20505;-86
2023/04/27 08:24:34;;;;;;;10.07;9.17;;;;;;;;;;5041235;28;20441;-86
2023/04/27 08:27:00;;;;;;;10.70;8.30;;;;;;;;;;5059095;28;20449;-86
2023/04/27 08:29:26;;;;;;;16.70;8.30;;;;;;;;;;5056572;28;20429;-86
2023/04/27 08:31:52;;;;;;;11.57;8.43;;;;;;;;;;5034619;28;20426;-85
2023/04/27 08:34:17;;;;;;;11.67;7.97;;;;;;;;;;5053290;28;20431;-86
2023/04/27 08:36:43;;;;;;;9.87;7.50;;;;;;;;;;5059087;28;20553;-86
2023/04/27 08:39:09;;;;;;;10.80;7.73;;;;;;;;;;5061289;28;20448;-86
2023/04/27 08:41:36;;;;;;;11.13;8.30;;;;;;;;;;5038971;28;20420;-86
2023/04/27 08:44:01;;;;;;;9.40;8.50;;;;;;;;;;5056619;28;20476;-86
2023/04/27 08:46:28;;;;;;;8.33;7.53;;;;;;;;;;5052858;28;20444;-86
2023/04/27 08:48:54;;;;;;;9.67;8.07;;;;;;;;;;5039838;28;20419;-86
2023/04/27 08:51:21;;;;;;;8.23;7.43;;;31.70;36.90;;;;;;5055232;28;21188;-86
2023/04/27 08:53:51;;;;;;;9.57;7.93;;;31.10;37.70;;;;;;5039274;28;20456;-86
2023/04/27 08:56:26;;;;;;;9.03;8.00;;;30.50;37.30;;;;;;5051397;28;20485;-86
2023/04/27 08:58:53;;;;;;;9.07;8.23;;;30.50;37.90;;;;;;5039710;28;20957;-85
2023/04/27 09:01:19;;;;;;;10.10;8.10;;;;;;;;;;5035150;28;20436;-85
2023/04/27 09:03:45;;;;;;;7.30;6.70;;;;;;;;;;5039427;28;20418;-85
2023/04/27 09:06:11;;;;;;;9.20;7.67;;;;;;;;;;5024157;28;20443;-86
2023/04/27 09:08:45;;;;;;;8.57;7.60;;;29.50;39.20;;;;;;5057180;28;20448;-85
2023/04/27 09:11:11;;;;;;;11.90;8.80;;;;;;;;;;5058165;28;20433;-85
2023/04/27 09:13:38;;;;;;;8.57;7.00;;;27.90;39.50;;;;;;5032366;28;20427;-86
2023/04/27 09:16:05;;;;;;;6.60;6.00;;;;;;;;;;5041119;28;20471;-85
2023/04/27 09:18:40;;;;;;;8.60;6.63;;;23.90;42.30;;;;;;5042135;28;20510;-86
2023/04/27 09:21:06;;;;;;;18.47;7.40;;;;;;;;;;5061031;28;20407;-85
2023/04/27 09:23:37;;;;;;;8.90;6.40;;;21.70;44.00;;;;;;5061357;28;20406;-85
2023/04/27 09:26:07;;;;;;;6.80;5.90;;;20.10;48.70;;;;;;5044033;28;20463;-85
2023/04/27 09:28:36;;;;;;;8.50;6.70;;;19.10;49.40;;;;;;5038132;28;20529;-85
2023/04/27 09:31:03;;;;;;;8.13;5.93;;;19.00;49.80;;;;;;5056637;28;20445;-85
2023/04/27 09:33:31;;;;;;;8.60;6.43;;;18.40;50.90;;;;;;5051878;28;20497;-85
2023/04/27 09:35:58;;;;;;;7.70;5.73;;;18.50;52.20;;;;;;5040710;28;20483;-85
2023/04/27 09:38:24;;;;;;;7.90;5.37;;;18.50;53.10;;;;;;5059047;28;20490;-85
2023/04/27 09:40:52;;;;;;;8.10;5.60;;;20.60;49.90;;;;;;5063311;28;20724;-86
2023/04/27 09:43:18;;;;;;;8.87;5.50;;;20.50;50.10;;;;;;5061966;28;20576;-85
2023/04/27 09:45:43;;;;;;;11.70;5.47;;;21.20;48.50;;;;;;5060107;28;20470;-85
2023/04/27 09:48:11;;;;;;;14.67;6.07;;;21.40;48.70;;;;;;5064696;28;20191;-85
2023/04/27 09:50:38;;;;;;;9.30;5.13;;;22.50;47.50;;;;;;5064756;28;20721;-85
2023/04/27 09:53:32;;;;;;;11.80;5.20;;;24.10;44.30;;;;;;5059445;28;21042;-85
2023/04/27 09:56:33;;;;;;;13.37;5.60;;;24.30;45.20;;;;;;5049541;28;20948;-86
2023/04/27 09:58:59;;;;;;;8.70;5.90;;;;;;;;;;5043542;28;20503;-85
2023/04/27 10:01:45;;;;;;;5.70;4.97;;;26.10;42.50;;;;;;5046035;28;20428;-85
2023/04/27 10:04:35;;;;;;;7.17;5.53;;;26.60;39.80;;;;;;5037816;28;20421;-85
2023/04/27 10:07:11;;;;;;;6.83;6.07;;;26.20;38.90;;;;;;5018778;28;20442;-85
2023/04/27 10:09:41;;;;;;;15.57;7.20;;;27.00;41.50;;;;;;5030071;28;20430;-85
2023/04/27 10:12:27;;;;;;;10.10;6.70;;;26.20;40.00;;;;;;5040638;28;20568;-85
2023/04/27 10:14:53;;;;;;;10.77;6.17;;;;;;;;;;5050543;28;20427;-85
2023/04/27 10:17:32;;;;;;;9.73;6.40;;;22.70;44.00;;;;;;5053440;28;20832;-85
2023/04/27 10:20:08;;;;;;;9.97;6.70;;;21.10;45.30;;;;;;5042308;28;20906;-85
2023/04/27 10:22:44;;;;;;;6.83;5.77;;;21.10;45.80;;;;;;5049443;28;20437;-85
2023/04/27 10:25:24;;;;;;;9.77;5.37;;;19.40;49.70;;;;;;5037900;28;21136;-85
2023/04/27 10:27:55;;;;;;;7.93;5.30;;;18.90;51.10;;;;;;5037910;28;20617;-84
2023/04/27 10:30:23;;;;;;;11.77;5.87;;;18.90;51.50;;;;;;5044384;28;20992;-84
2023/04/27 10:32:56;;;;;;;6.80;5.47;;;19.30;51.70;;;;;;5037679;28;20412;-84
2023/04/27 10:35:41;;;;;;;13.90;5.30;;;18.70;49.80;;;;;;5042276;28;20538;-81
2023/04/27 10:38:21;;;;;;;8.20;6.10;;;18.60;50.00;;;;;;5045743;28;20456;-83
2023/04/27 10:40:55;;;;;;;10.53;6.00;;;18.90;51.00;;;;;;5037093;28;20453;-85
2023/04/27 10:43:25;;;;;;;10.50;5.80;;;19.30;50.70;;;;;;5043647;28;20428;-84
2023/04/27 10:45:51;;;;;;;6.70;5.73;;;;;;;;;;5028112;28;20443;-84
2023/04/27 10:48:16;;;;;;;6.83;5.37;;;21.00;47.10;;;;;;5028239;28;20448;-83
2023/04/27 10:50:48;;;;;;;7.50;5.80;;;;;;;;;;5032996;28;20979;-84
2023/04/27 10:53:15;;;;;;;6.37;5.87;;;21.20;46.20;;;;;;5037582;28;20162;-83
2023/04/27 10:55:41;;;;;;;8.37;5.17;;;20.90;47.00;;;;;;5038695;28;20455;-84
2023/04/27 10:58:06;;;;;;;7.27;6.23;;;20.80;47.40;;;;;;5046762;28;20471;-83
2023/04/27 11:00:36;;;;;;;8.93;5.97;;;20.40;48.80;;;;;;5028987;28;20181;-81
2023/04/27 11:03:13;;;;;;;7.83;6.03;;;19.80;49.80;;;;;;5047086;28;20678;-82
2023/04/27 11:05:39;;;;;;;11.90;6.87;;;;;;;;;;5047137;28;20451;-84
2023/04/27 11:08:08;;;;;;;10.03;5.97;;;20.20;48.60;;;;;;5048432;28;20486;-85
2023/04/27 11:10:34;;;;;;;10.37;6.60;;;;;;;;;;5053739;28;20458;-85
2023/04/27 11:13:10;;;;;;;7.90;6.73;;;20.00;48.30;;;;;;5046854;28;20446;-84
2023/04/27 11:15:50;;;;;;;8.13;5.97;;;19.90;48.80;;;;;;5041012;28;20439;-84
2023/04/27 11:18:18;;;;;;;9.43;6.13;;;19.80;51.40;;;;;;5040722;28;20438;-84
2023/04/27 11:20:46;;;;;;;8.27;6.00;;;19.70;50.00;;;;;;5057780;28;20406;-84
2023/04/27 11:23:25;;;;;;;10.87;6.67;;;20.10;52.10;;;;;;5039230;28;20775;-84
2023/04/27 11:25:51;;;;;;;12.13;6.83;;;;;;;;;;5034021;28;20498;-84
2023/04/27 11:28:20;;;;;;;9.80;5.63;;;19.50;54.50;;;;;;5035204;28;20506;-84
2023/04/27 11:30:48;;;;;;;6.90;5.97;;;19.70;52.60;;;;;;5053865;28;21012;-85
2023/04/27 11:33:14;;;;;;;6.70;6.10;;;;;;;;;;5041622;28;20428;-85
2023/04/27 11:35:41;;;;;;;7.90;5.67;;;20.60;50.60;;;;;;5041447;28;20442;-85
2023/04/27 11:38:07;;;;;;;15.13;6.17;;;;;;;;;;5042173;28;20462;-84
2023/04/27 11:40:39;;;;;;;5.43;4.83;;;;;;;;;;5060903;28;20424;-83
2023/04/27 11:43:05;;;;;;;11.67;7.37;;;;;;;;;;5063509;28;20384;-85
2023/04/27 11:45:31;;;;;;;9.67;6.23;;;;;;;;;;5050373;28;20450;-84
2023/04/27 11:47:58;;;;;;;14.10;5.90;;;;;;;;;;5073042;28;20494;-83
2023/04/27 11:50:25;;;;;;;16.60;6.37;;;19.00;52.70;;;;;;5055172;28;20415;-83
2023/04/27 11:52:52;;;;;;;7.63;6.40;;;;;;;;;;5055178;28;20491;-84
2023/04/27 11:55:20;;;;;;;10.57;6.63;;;19.20;54.20;;;;;;5062673;28;20458;-84
2023/04/27 11:57:46;;;;;;;14.20;8.13;;;;;;;;;;5041339;28;20471;-85
2023/04/27 12:00:13;;;;;;;7.47;6.30;;;19.80;52.10;;;;;;5053592;28;20427;-84
2023/04/27 12:02:39;;;;;;;10.83;6.27;;;;;;;;;;5044929;28;20504;-84
2023/04/27 12:05:06;;;;;;;11.00;6.30;;;20.90;51.00;;;;;;5037390;28;20438;-83
2023/04/27 12:07:32;;;;;;;10.13;6.53;;;21.10;50.10;;;;;;5035373;28;20464;-84
2023/04/27 12:09:58;;;;;;;11.57;6.40;;;;;;;;;;5061455;28;20651;-85
2023/04/27 12:12:23;;;;;;;10.67;5.80;;;21.30;48.20;;;;;;5039500;28;20449;-85
2023/04/27 12:14:50;;;;;;;10.53;5.57;;;20.50;49.90;;;;;;5048598;28;20451;-84
2023/04/27 12:17:16;;;;;;;9.27;5.67;;;20.70;50.60;;;;;;5039598;28;20709;-83
2023/04/27 12:19:42;;;;;;;6.80;5.30;;;20.50;52.20;;;;;;5037697;28;20948;-85
2023/04/27 12:22:08;;;;;;;18.23;5.93;;;19.90;52.40;;;;;;5021626;28;20423;-82
2023/04/27 12:24:37;;;;;;;8.40;5.20;;;20.00;53.40;;;;;;5049045;28;20239;-84
2023/04/27 12:27:03;;;;;;;8.57;5.50;;;;;;;;;;5035500;28;20486;-84
2023/04/27 12:29:30;;;;;;;9.77;5.70;;;20.20;53.10;;;;;;5030679;28;20461;-85
2023/04/27 12:31:57;;;;;;;12.07;5.27;;;19.80;53.40;;;;;;5038879;28;20512;-85
2023/04/27 12:34:23;;;;;;;8.93;5.13;;;20.10;52.30;;;;;;5058466;28;20422;-84
2023/04/27 12:36:48;;;;;;;7.20;5.20;;;20.00;53.50;;;;;;5058661;28;20483;-82
2023/04/27 12:39:16;;;;;;;6.93;5.33;;;20.10;53.30;;;;;;5058292;28;20180;-85
2023/04/27 12:41:43;;;;;;;7.90;5.00;;;20.00;53.70;;;;;;5058714;28;20197;-83
2023/04/27 12:44:09;;;;;;;9.23;4.97;;;;;;;;;;5040327;28;20423;-84
2023/04/27 12:46:39;;;;;;;9.70;5.13;;;19.90;53.00;;;;;;5048781;28;21059;-85
2023/04/27 12:49:05;;;;;;;6.40;5.00;;;;;;;;;;5035675;28;20451;-83
2023/04/27 12:51:33;;;;;;;5.60;4.67;;;;;;;;;;5037572;28;20496;-83
2023/04/27 12:53:58;;;;;;;8.43;4.93;;;19.60;51.00;;;;;;5018901;28;20417;-82
2023/04/27 12:56:24;;;;;;;8.17;4.30;;;19.80;51.80;;;;;;5019555;28;21051;-84
2023/04/27 12:58:50;;;;;;;7.60;4.43;;;19.70;53.30;;;;;;5046722;28;20634;-83
2023/04/27 13:01:16;;;;;;;9.47;5.00;;;;;;;;;;5048413;28;20261;-84
2023/04/27 13:03:42;;;;;;;5.60;4.70;;;;;;;;;;5045299;28;20170;-83
2023/04/27 13:06:08;;;;;;;4.57;4.17;;;19.10;54.40;;;;;;5029445;28;20464;-83
2023/04/27 13:08:35;;;;;;;8.27;4.70;;;19.50;55.20;;;;;;5035204;28;20432;-84
2023/04/27 13:11:00;;;;;;;7.63;4.63;;;20.30;53.50;;;;;;5037137;28;20189;-84